Mitsukawa Maru — JD2495 — position and weather

sailwx.info

Track history (hours):
 
Tides and Currents Weather Stations Pressure Air Temp Water Temp Dewpoint Dewpoint Depression Visibility Wind Speed Wind Dir Waves Ship Positions

Mitsukawa Maru

Last reported at 2014-Jul-30 02:33 UTC. Time now 2014-Jul-31 03:24 UTC.
Position N 34°48' E 139°12'.

Length 105 m; draft 4.7 m.

Type: Cargo ship. MMSI: 431000326.

Date/timePositionNaut miles runAvg speedWind from/ knotsBaromVisibWave heightAir tempDewpointWater temp
2014-Jul-30 02:33N 34°48' E 139°12'1313.4
2014-Jul-30 01:33N 34°57' E 139°24'1313.4
2014-Jul-30 00:34N 35°05' E 139°37'1312.7
2014-Jul-29 23:33N 35°15' E 139°46'1111.5
2014-Jul-29 22:34N 35°26' E 139°46'1413.5
2014-Jul-29 21:33N 35°34' E 139°60'6 5.7
2014-Jul-29 20:33N 35°35' E 140°07'0 0.0
2014-Jul-29 19:33N 35°35' E 140°07'0 0.0
2014-Jul-29 18:30N 35°35' E 140°07'0 0.0
2014-Jul-29 17:30N 35°35' E 140°07'0 0.0
2014-Jul-29 16:33N 35°35' E 140°07'0 0.0
2014-Jul-29 15:33N 35°35' E 140°07'0 0.0
2014-Jul-29 14:30N 35°35' E 140°07'0 0.0
2014-Jul-29 13:33N 35°35' E 140°07'0 0.0
2014-Jul-29 12:33N 35°35' E 140°07'0 0.0
2014-Jul-29 11:27N 35°35' E 140°07'0 0.0
2014-Jul-29 10:33N 35°35' E 140°07'0 0.0
2014-Jul-29 09:30N 35°35' E 140°07'0 0.0
2014-Jul-29 08:33N 35°35' E 140°07'0 0.0
2014-Jul-29 07:33N 35°35' E 140°07'0 0.0
2014-Jul-29 06:33N 35°35' E 140°07'0 0.0
2014-Jul-29 05:33N 35°35' E 140°07'0 0.0
2014-Jul-29 04:30N 35°35' E 140°07'0 0.1
2014-Jul-29 03:33N 35°35' E 140°07'0 0.0
2014-Jul-29 02:33N 35°35' E 140°07'0 0.0
2014-Jul-29 01:33N 35°35' E 140°07'0 0.0
2014-Jul-29 00:33N 35°35' E 140°07'0 0.0
2014-Jul-28 23:30N 35°35' E 140°07'1 0.7
2014-Jul-28 22:33N 35°35' E 140°06'6 6.2
2014-Jul-28 21:33N 35°34' E 139°59'0 0.1
2014-Jul-28 20:33N 35°34' E 139°59'0 0.0
2014-Jul-28 19:33N 35°34' E 139°59'0 0.0
2014-Jul-28 18:33N 35°34' E 139°59'0 0.0
2014-Jul-28 17:33N 35°34' E 139°59'0 0.0
2014-Jul-28 16:33N 35°34' E 139°59'3 3.0
2014-Jul-28 15:33N 35°32' E 139°56'1212.1
2014-Jul-28 14:34N 35°23' E 139°46'1110.9
2014-Jul-28 13:34N 35°12' E 139°47'1212.0
2014-Jul-28 12:33N 35°02' E 139°40'1313.0
2014-Jul-28 11:33N 34°54' E 139°27'228 4.6
2014-Jul-26 09:30N 34°06' E 134°56'1212.6
2014-Jul-26 08:33N 34°18' E 134°59'1212.0
2014-Jul-26 07:33N 34°30' E 135°02'8 8.0
2014-Jul-26 06:32N 34°35' E 134°55'114 5.3
2014-Jul-25 09:10N 33°59' E 132°44'25 1.8
2014-Jul-24 19:29N 33°42' E 132°23'1513.9
2014-Jul-24 18:26N 33°53' E 132°35'12 0.5
2014-Jul-23 19:32N 34°01' E 132°46'  
Track history (hours):
 
Tides and Currents Weather Stations Pressure Air Temp Water Temp Dewpoint Dewpoint Depression Visibility Wind Speed Wind Dir Waves Ship Positions

Mitsukawa Maru

Last reported at 2014-Jul-30 02:33 UTC. Time now 2014-Jul-31 03:24 UTC.
Position N 34°48' E 139°12'.

Length 105 m; draft 4.7 m.

Type: Cargo ship. MMSI: 431000326.

Date/timePositionNaut miles runAvg speedWind from/ knotsBaromVisibWave heightAir tempDewpointWater temp
2014-Jul-30 02:33N 34°48' E 139°12'1313.4
2014-Jul-30 01:33N 34°57' E 139°24'1313.4
2014-Jul-30 00:34N 35°05' E 139°37'1312.7
2014-Jul-29 23:33N 35°15' E 139°46'1111.5
2014-Jul-29 22:34N 35°26' E 139°46'1413.5
2014-Jul-29 21:33N 35°34' E 139°60'6 5.7
2014-Jul-29 20:33N 35°35' E 140°07'0 0.0
2014-Jul-29 19:33N 35°35' E 140°07'0 0.0
2014-Jul-29 18:30N 35°35' E 140°07'0 0.0
2014-Jul-29 17:30N 35°35' E 140°07'0 0.0
2014-Jul-29 16:33N 35°35' E 140°07'0 0.0
2014-Jul-29 15:33N 35°35' E 140°07'0 0.0
2014-Jul-29 14:30N 35°35' E 140°07'0 0.0
2014-Jul-29 13:33N 35°35' E 140°07'0 0.0
2014-Jul-29 12:33N 35°35' E 140°07'0 0.0
2014-Jul-29 11:27N 35°35' E 140°07'0 0.0
2014-Jul-29 10:33N 35°35' E 140°07'0 0.0
2014-Jul-29 09:30N 35°35' E 140°07'0 0.0
2014-Jul-29 08:33N 35°35' E 140°07'0 0.0
2014-Jul-29 07:33N 35°35' E 140°07'0 0.0
2014-Jul-29 06:33N 35°35' E 140°07'0 0.0
2014-Jul-29 05:33N 35°35' E 140°07'0 0.0
2014-Jul-29 04:30N 35°35' E 140°07'0 0.1
2014-Jul-29 03:33N 35°35' E 140°07'0 0.0
2014-Jul-29 02:33N 35°35' E 140°07'0 0.0
2014-Jul-29 01:33N 35°35' E 140°07'0 0.0
2014-Jul-29 00:33N 35°35' E 140°07'0 0.0
2014-Jul-28 23:30N 35°35' E 140°07'1 0.7
2014-Jul-28 22:33N 35°35' E 140°06'6 6.2
2014-Jul-28 21:33N 35°34' E 139°59'0 0.1
2014-Jul-28 20:33N 35°34' E 139°59'0 0.0
2014-Jul-28 19:33N 35°34' E 139°59'0 0.0
2014-Jul-28 18:33N 35°34' E 139°59'0 0.0
2014-Jul-28 17:33N 35°34' E 139°59'0 0.0
2014-Jul-28 16:33N 35°34' E 139°59'3 3.0
2014-Jul-28 15:33N 35°32' E 139°56'1212.1
2014-Jul-28 14:34N 35°23' E 139°46'1110.9
2014-Jul-28 13:34N 35°12' E 139°47'1212.0
2014-Jul-28 12:33N 35°02' E 139°40'1313.0
2014-Jul-28 11:33N 34°54' E 139°27'228 4.6
2014-Jul-26 09:30N 34°06' E 134°56'1212.6
2014-Jul-26 08:33N 34°18' E 134°59'1212.0
2014-Jul-26 07:33N 34°30' E 135°02'8 8.0
2014-Jul-26 06:32N 34°35' E 134°55'114 5.3
2014-Jul-25 09:10N 33°59' E 132°44'25 1.8
2014-Jul-24 19:29N 33°42' E 132°23'1513.9
2014-Jul-24 18:26N 33°53' E 132°35'12 0.5
2014-Jul-23 19:32N 34°01' E 132°46'  

Dump ship's entire track history